createdAt,value
2017-06-25T00:00:53.274Z,13.57
2017-06-25T00:03:20.834Z,15.03
2017-06-25T00:05:48.366Z,14.00
2017-06-25T00:08:16.690Z,12.03
2017-06-25T00:10:44.230Z,13.10
2017-06-25T00:13:11.790Z,12.48
2017-06-25T00:15:39.379Z,13.33
2017-06-25T00:18:07.015Z,14.23
2017-06-25T00:20:34.522Z,13.00
2017-06-25T00:23:02.235Z,12.97
2017-06-25T00:25:29.803Z,12.50
2017-06-25T00:27:57.310Z,10.27
2017-06-25T00:30:24.918Z,10.87
2017-06-25T00:32:52.419Z,11.80
2017-06-25T00:35:19.930Z,11.83
2017-06-25T00:37:47.598Z,11.23
2017-06-25T00:40:15.158Z,10.30
2017-06-25T00:42:42.655Z,9.03
2017-06-25T00:45:10.358Z,8.93
2017-06-25T00:47:37.858Z,7.47
2017-06-25T00:50:05.398Z,7.80
2017-06-25T00:52:32.918Z,6.90
2017-06-25T00:55:01.249Z,7.25
2017-06-25T00:57:28.790Z,6.00
2017-06-25T00:59:56.315Z,6.00
2017-06-25T01:02:23.910Z,5.50
2017-06-25T01:04:51.449Z,5.03
2017-06-25T01:07:19.710Z,5.97
2017-06-25T01:09:47.983Z,5.20
2017-06-25T01:12:15.794Z,5.23
2017-06-25T01:14:43.354Z,5.07
2017-06-25T01:17:10.915Z,5.33
2017-06-25T01:19:38.474Z,6.40
2017-06-25T01:22:06.035Z,5.50
2017-06-25T01:24:33.594Z,6.60
2017-06-25T01:27:01.126Z,6.20
2017-06-25T01:29:28.630Z,5.70
2017-06-25T01:31:56.130Z,6.10
2017-06-25T01:34:23.725Z,5.43
2017-06-25T01:36:51.222Z,5.40
2017-06-25T01:39:18.762Z,6.15
2017-06-25T01:41:46.522Z,5.47
2017-06-25T01:44:14.019Z,6.63
2017-06-25T01:46:41.535Z,6.37
2017-06-25T01:49:09.094Z,6.87
2017-06-25T01:51:36.603Z,6.80
2017-06-25T01:54:04.114Z,7.00
2017-06-25T01:56:31.907Z,6.50
2017-06-25T01:58:59.434Z,6.65
2017-06-25T02:01:26.941Z,6.40
2017-06-25T02:03:54.458Z,5.80
2017-06-25T02:06:22.005Z,5.53
2017-06-25T02:08:49.566Z,4.62
2017-06-25T02:11:17.065Z,4.10
2017-06-25T02:13:44.581Z,3.95
2017-06-25T02:16:12.142Z,3.45
2017-06-25T02:18:39.683Z,3.20
2017-06-25T02:21:08.086Z,2.72
2017-06-25T02:23:35.582Z,2.77
2017-06-25T02:26:03.110Z,2.80
2017-06-25T02:28:30.649Z,2.58
2017-06-25T02:30:58.215Z,2.60
2017-06-25T02:33:25.714Z,2.85
2017-06-25T02:35:53.337Z,2.72
2017-06-25T02:38:20.829Z,3.00
2017-06-25T02:40:48.458Z,3.25
2017-06-25T02:43:15.954Z,3.37
2017-06-25T02:45:43.582Z,2.90
2017-06-25T02:48:11.102Z,3.42
2017-06-25T02:50:38.693Z,2.53
2017-06-25T02:53:06.233Z,2.80
2017-06-25T02:55:34.509Z,3.37
2017-06-25T02:58:02.781Z,2.75
2017-06-25T03:00:31.295Z,3.10
2017-06-25T03:02:58.798Z,3.10
2017-06-25T03:05:26.289Z,2.80
2017-06-25T03:07:54.794Z,3.00
2017-06-25T03:10:22.359Z,2.70
2017-06-25T03:12:49.857Z,2.60
2017-06-25T03:15:17.472Z,3.15
2017-06-25T03:17:45.038Z,2.50
2017-06-25T03:20:12.542Z,2.70
2017-06-25T03:22:40.063Z,2.45
2017-06-25T03:25:07.613Z,3.10
2017-06-25T03:27:35.274Z,2.70
2017-06-25T03:30:02.834Z,2.40
2017-06-25T03:32:30.491Z,2.70
2017-06-25T03:34:58.158Z,2.97
2017-06-25T03:37:25.650Z,2.50
2017-06-25T03:39:53.149Z,3.10
2017-06-25T03:42:21.449Z,2.95
2017-06-25T03:44:49.019Z,2.90
2017-06-25T03:47:16.524Z,3.10
2017-06-25T03:49:44.042Z,2.70
2017-06-25T03:52:11.589Z,3.17
2017-06-25T03:54:39.149Z,2.62
2017-06-25T03:57:06.666Z,2.30
2017-06-25T03:59:34.159Z,2.50
2017-06-25T04:02:01.849Z,2.92
2017-06-25T04:04:29.341Z,2.67
2017-06-25T04:06:56.829Z,2.70
2017-06-25T04:09:25.139Z,2.47
2017-06-25T04:11:52.682Z,3.00
2017-06-25T04:14:20.175Z,2.78
2017-06-25T04:16:47.798Z,2.70
2017-06-25T04:19:15.306Z,2.62
2017-06-25T04:21:42.918Z,2.65
2017-06-25T04:24:10.410Z,3.28
2017-06-25T04:26:38.042Z,3.70
2017-06-25T04:29:05.542Z,3.60
2017-06-25T04:31:33.045Z,4.12
2017-06-25T04:34:01.503Z,4.12
2017-06-25T04:36:28.998Z,4.25
2017-06-25T04:38:56.578Z,3.60
2017-06-25T04:41:24.721Z,4.65
2017-06-25T04:43:52.219Z,4.35
2017-06-25T04:46:19.742Z,3.65
2017-06-25T04:48:47.238Z,4.30
2017-06-25T04:51:14.778Z,4.32
2017-06-25T04:53:42.278Z,4.70
2017-06-25T04:56:09.774Z,3.95
2017-06-25T04:58:37.318Z,4.87
2017-06-25T05:01:05.726Z,5.10
2017-06-25T05:03:33.229Z,5.60
2017-06-25T05:06:00.741Z,5.25
2017-06-25T05:08:28.266Z,4.82
2017-06-25T05:10:55.766Z,5.37
2017-06-25T05:13:23.321Z,5.90
2017-06-25T05:15:50.818Z,6.32
2017-06-25T05:18:18.438Z,6.68
2017-06-25T05:20:45.934Z,6.22
2017-06-25T05:23:13.458Z,6.60
2017-06-25T05:25:40.974Z,6.28
2017-06-25T05:28:08.469Z,6.40
2017-06-25T05:30:36.042Z,5.80
2017-06-25T05:33:03.562Z,6.87
2017-06-25T05:35:31.055Z,6.22
2017-06-25T05:37:58.615Z,5.22
2017-06-25T05:40:26.273Z,5.22
2017-06-25T05:42:53.789Z,4.95
2017-06-25T05:45:21.286Z,4.75
2017-06-25T05:47:48.953Z,4.78
2017-06-25T05:50:16.453Z,4.60
2017-06-25T05:52:43.950Z,4.60
2017-06-25T05:55:12.257Z,3.92
2017-06-25T05:57:39.754Z,4.30
2017-06-25T06:00:07.274Z,4.53
2017-06-25T06:02:34.778Z,4.35
2017-06-25T06:05:02.306Z,4.57
2017-06-25T06:07:29.949Z,4.50
2017-06-25T06:09:57.447Z,4.80
2017-06-25T06:12:24.949Z,4.73
2017-06-25T06:14:53.576Z,4.03
2017-06-25T06:17:21.114Z,4.43
2017-06-25T06:19:48.655Z,4.35
2017-06-25T06:22:16.969Z,4.70
2017-06-25T06:24:44.611Z,4.37
2017-06-25T06:27:12.270Z,4.37
2017-06-25T06:29:39.830Z,4.67
2017-06-25T06:32:07.331Z,5.33
2017-06-25T06:34:34.950Z,5.80
2017-06-25T06:37:02.475Z,5.10
2017-06-25T06:39:29.966Z,5.00
2017-06-25T06:41:57.526Z,4.07
2017-06-25T06:44:25.809Z,4.10
2017-06-25T06:46:53.306Z,4.53
2017-06-25T06:49:20.818Z,4.60
2017-06-25T06:51:48.313Z,4.55
2017-06-25T06:54:15.949Z,4.70
2017-06-25T06:56:43.511Z,3.75
2017-06-25T06:59:11.013Z,4.37
2017-06-25T07:01:38.539Z,4.40
2017-06-25T07:04:06.086Z,3.45
2017-06-25T07:06:33.746Z,4.05
2017-06-25T07:09:01.306Z,4.13
2017-06-25T07:11:28.802Z,4.23
2017-06-25T07:13:56.531Z,4.20
2017-06-25T07:16:24.085Z,4.10
2017-06-25T07:18:51.586Z,4.00
2017-06-25T07:21:19.114Z,4.60
2017-06-25T07:23:46.668Z,3.50
2017-06-25T07:26:14.326Z,4.37
2017-06-25T07:28:41.818Z,4.50
2017-06-25T07:31:09.346Z,5.07
2017-06-25T07:33:37.010Z,5.00
2017-06-25T07:36:04.675Z,4.10
2017-06-25T07:38:32.234Z,4.40
2017-06-25T07:40:59.770Z,4.97
2017-06-25T07:43:28.171Z,4.12
2017-06-25T07:45:55.669Z,4.50
2017-06-25T07:48:23.209Z,5.37
2017-06-25T07:50:50.704Z,4.27
2017-06-25T07:53:18.202Z,5.47
2017-06-25T07:55:45.870Z,5.20
2017-06-25T07:58:15.477Z,4.93
2017-06-25T08:00:43.083Z,5.67
2017-06-25T08:03:10.818Z,5.30
2017-06-25T08:05:38.365Z,5.40
2017-06-25T08:08:05.893Z,6.20
2017-06-25T08:10:33.385Z,5.90
2017-06-25T08:13:00.878Z,6.23
2017-06-25T08:15:28.497Z,5.80
2017-06-25T08:17:56.066Z,6.33
2017-06-25T08:20:23.622Z,5.40
2017-06-25T08:22:51.177Z,5.70
2017-06-25T08:25:18.746Z,6.03
2017-06-25T08:27:46.234Z,5.50
2017-06-25T08:30:13.863Z,5.30
2017-06-25T08:32:41.358Z,6.00
2017-06-25T08:35:08.884Z,5.73
2017-06-25T08:37:36.402Z,5.57
2017-06-25T08:40:03.890Z,6.43
2017-06-25T08:42:31.558Z,6.10
2017-06-25T08:44:59.220Z,5.70
2017-06-25T08:47:26.716Z,6.67
2017-06-25T08:49:54.440Z,7.07
2017-06-25T08:52:22.010Z,6.27
2017-06-25T08:54:49.566Z,5.67
2017-06-25T08:57:17.225Z,6.60
2017-06-25T08:59:44.785Z,6.97
2017-06-25T09:02:12.367Z,6.67
2017-06-25T09:04:39.886Z,6.90
2017-06-25T09:07:07.393Z,7.97
2017-06-25T09:09:34.923Z,7.27
2017-06-25T09:12:02.499Z,8.20
2017-06-25T09:14:30.042Z,8.27
2017-06-25T09:16:57.530Z,7.87
2017-06-25T09:19:25.058Z,8.90
2017-06-25T09:21:52.621Z,8.53
2017-06-25T09:24:20.106Z,8.13
2017-06-25T09:26:47.639Z,7.97
2017-06-25T09:29:15.210Z,8.77
2017-06-25T09:31:42.705Z,8.53
2017-06-25T09:34:10.230Z,8.93
2017-06-25T09:36:37.785Z,9.17
2017-06-25T09:39:05.343Z,8.97
2017-06-25T09:41:32.899Z,9.27
2017-06-25T09:44:00.553Z,9.67
2017-06-25T09:46:28.825Z,9.50
2017-06-25T09:48:57.119Z,8.87
2017-06-25T09:51:24.778Z,10.50
2017-06-25T09:53:52.342Z,10.17
2017-06-25T09:56:19.842Z,18.20
2017-06-25T09:58:47.371Z,22.40
2017-06-25T10:01:14.914Z,14.48
2017-06-25T10:03:42.442Z,23.30
2017-06-25T10:06:10.715Z,14.47
2017-06-25T10:08:38.314Z,13.30
2017-06-25T10:11:06.086Z,13.80
2017-06-25T10:13:33.589Z,14.77
2017-06-25T10:16:01.289Z,14.53
2017-06-25T10:18:28.866Z,13.53
2017-06-25T10:20:56.418Z,11.70
2017-06-25T10:23:23.926Z,12.93
2017-06-25T10:25:51.543Z,13.87
2017-06-25T10:28:19.046Z,14.00
2017-06-25T10:30:46.566Z,12.53
2017-06-25T10:33:14.091Z,14.10
2017-06-25T10:35:42.394Z,13.43
2017-06-25T10:38:10.056Z,13.80
2017-06-25T10:40:37.630Z,13.93
2017-06-25T10:43:05.196Z,11.50
2017-06-25T10:45:32.721Z,13.70
2017-06-25T10:48:01.221Z,13.40
2017-06-25T10:50:28.718Z,21.43
2017-06-25T10:52:56.237Z,13.87
2017-06-25T10:55:23.762Z,28.57
2017-06-25T10:57:51.286Z,16.73
2017-06-25T11:00:18.813Z,13.33
2017-06-25T11:02:46.377Z,19.10
2017-06-25T11:05:13.898Z,16.07
2017-06-25T11:07:41.513Z,13.57
2017-06-25T11:10:09.053Z,10.30
2017-06-25T11:12:36.614Z,7.43
2017-06-25T11:15:04.130Z,6.80
2017-06-25T11:17:31.625Z,8.40
2017-06-25T11:19:59.198Z,8.70
2017-06-25T11:22:26.851Z,9.57
2017-06-25T11:24:54.355Z,9.73
2017-06-25T11:27:21.977Z,8.90
2017-06-25T11:29:49.469Z,9.77
2017-06-25T11:32:17.077Z,10.77
2017-06-25T11:34:44.571Z,11.20
2017-06-25T11:37:12.110Z,11.00
2017-06-25T11:39:39.651Z,10.50
2017-06-25T11:42:07.918Z,11.40
2017-06-25T11:44:35.614Z,10.10
2017-06-25T11:47:03.137Z,10.13
2017-06-25T11:49:30.729Z,9.93
2017-06-25T11:51:58.294Z,9.90
2017-06-25T11:54:25.790Z,10.20
2017-06-25T11:56:53.519Z,27.30
2017-06-25T11:59:21.021Z,29.13
2017-06-25T12:01:48.534Z,38.23
2017-06-25T12:04:16.470Z,28.20
2017-06-25T12:06:44.777Z,41.00
2017-06-25T12:09:12.290Z,20.90
2017-06-25T12:11:39.814Z,15.40
2017-06-25T12:14:07.370Z,15.13
2017-06-25T12:16:34.898Z,17.70
2017-06-25T12:19:03.172Z,11.33
2017-06-25T12:21:31.434Z,9.20
2017-06-25T12:23:58.958Z,8.93
2017-06-25T12:26:26.503Z,8.33
2017-06-25T12:28:54.026Z,9.97
2017-06-25T12:31:21.530Z,8.50
2017-06-25T12:33:49.186Z,11.60
2017-06-25T12:36:17.759Z,14.50
2017-06-25T12:38:45.253Z,13.37
2017-06-25T12:41:12.897Z,16.30
2017-06-25T12:43:40.403Z,15.17
2017-06-25T12:46:08.714Z,13.40
2017-06-25T12:48:36.370Z,10.23
2017-06-25T12:51:03.877Z,10.27
2017-06-25T12:53:31.370Z,8.70
2017-06-25T12:55:59.706Z,6.13
2017-06-25T12:58:27.278Z,7.20
2017-06-25T13:00:54.926Z,5.80
2017-06-25T13:03:22.438Z,5.70
2017-06-25T13:05:50.207Z,5.20
2017-06-25T13:08:17.712Z,5.73
2017-06-25T13:10:45.334Z,6.43
2017-06-25T13:13:12.974Z,7.60
2017-06-25T13:15:41.277Z,8.27
2017-06-25T13:18:08.834Z,9.37
2017-06-25T13:20:36.354Z,8.77
2017-06-25T13:23:03.850Z,9.47
2017-06-25T13:25:31.614Z,8.63
2017-06-25T13:27:59.113Z,9.17
2017-06-25T13:30:26.738Z,10.17
2017-06-25T13:32:54.274Z,10.27
2017-06-25T13:35:22.592Z,9.57
2017-06-25T13:37:50.138Z,10.07
2017-06-25T13:40:17.854Z,9.70
2017-06-25T13:42:45.462Z,10.20
2017-06-25T13:45:13.017Z,8.50
2017-06-25T13:47:40.582Z,8.00
2017-06-25T13:50:08.082Z,8.70
2017-06-25T13:52:35.594Z,8.67
2017-06-25T13:55:03.210Z,7.67
2017-06-25T13:57:31.745Z,7.50
2017-06-25T13:59:59.318Z,6.70
2017-06-25T14:02:26.830Z,6.77
2017-06-25T14:04:54.420Z,6.60
2017-06-25T14:07:22.189Z,7.67
2017-06-25T14:09:49.746Z,6.13
2017-06-25T14:12:17.297Z,6.67
2017-06-25T14:14:44.870Z,6.90
2017-06-25T14:17:12.426Z,6.67
2017-06-25T14:19:39.981Z,6.53
2017-06-25T14:22:07.518Z,7.50
2017-06-25T14:24:35.921Z,8.03
2017-06-25T14:27:03.481Z,7.70
2017-06-25T14:29:31.014Z,7.20
2017-06-25T14:31:58.506Z,7.20
2017-06-25T14:34:26.030Z,8.00
2017-06-25T14:36:53.522Z,7.80
2017-06-25T14:39:21.078Z,7.57
2017-06-25T14:41:48.846Z,9.17
2017-06-25T14:44:16.411Z,9.17
2017-06-25T14:46:43.971Z,9.23
2017-06-25T14:49:11.526Z,8.73
2017-06-25T14:51:39.022Z,10.40
2017-06-25T14:54:06.546Z,8.03
2017-06-25T14:56:34.410Z,8.37
2017-06-25T14:59:01.906Z,9.20
2017-06-25T15:01:29.430Z,7.87
2017-06-25T15:03:56.985Z,8.17
2017-06-25T15:06:24.546Z,7.60
2017-06-25T15:08:52.071Z,7.97
2017-06-25T15:11:19.558Z,7.40
2017-06-25T15:13:47.049Z,7.60
2017-06-25T15:16:14.578Z,6.50
2017-06-25T15:18:42.070Z,6.90
2017-06-25T15:21:09.596Z,6.43
2017-06-25T15:23:37.880Z,7.90
2017-06-25T15:26:05.439Z,6.37
2017-06-25T15:28:33.202Z,7.83
2017-06-25T15:31:00.727Z,7.70
2017-06-25T15:33:28.994Z,6.47
2017-06-25T15:35:56.690Z,7.13
2017-06-25T15:38:24.998Z,6.50
2017-06-25T15:40:52.513Z,7.03
2017-06-25T15:43:20.802Z,6.87
2017-06-25T15:45:49.192Z,6.77
2017-06-25T15:48:16.766Z,6.20
2017-06-25T15:50:44.271Z,6.70
2017-06-25T15:53:11.874Z,5.57
2017-06-25T15:55:39.362Z,5.90
2017-06-25T15:58:08.825Z,5.67
2017-06-25T16:00:37.083Z,4.80
2017-06-25T16:03:04.578Z,5.00
2017-06-25T16:05:32.133Z,4.53
2017-06-25T16:07:59.630Z,4.20
2017-06-25T16:10:27.127Z,5.17
2017-06-25T16:12:55.552Z,3.80
2017-06-25T16:15:23.051Z,4.50
2017-06-25T16:17:50.546Z,4.33
2017-06-25T16:20:18.309Z,4.50
2017-06-25T16:22:45.804Z,3.93
2017-06-25T16:25:13.306Z,3.83
2017-06-25T16:27:40.849Z,14.90
2017-06-25T16:30:08.347Z,23.27
2017-06-25T16:32:35.969Z,11.27
2017-06-25T16:35:03.476Z,12.80
2017-06-25T16:37:30.982Z,35.00
2017-06-25T16:39:58.695Z,25.60
2017-06-25T16:42:26.255Z,26.30
2017-06-25T16:44:53.818Z,12.03
2017-06-25T16:47:21.374Z,12.23
2017-06-25T16:49:49.138Z,12.93
2017-06-25T16:52:16.693Z,8.40
2017-06-25T16:54:44.198Z,7.27
2017-06-25T16:57:11.809Z,6.47
2017-06-25T16:59:40.099Z,6.40
2017-06-25T17:02:07.594Z,4.83
2017-06-25T17:04:35.402Z,4.87
2017-06-25T17:07:03.663Z,4.47
2017-06-25T17:09:31.922Z,4.30
2017-06-25T17:11:59.449Z,5.30
2017-06-25T17:14:26.990Z,3.23
2017-06-25T17:16:54.569Z,3.67
2017-06-25T17:19:22.086Z,3.70
2017-06-25T17:21:49.770Z,3.43
2017-06-25T17:24:17.430Z,3.03
2017-06-25T17:26:45.174Z,3.37
2017-06-25T17:29:13.462Z,3.07
2017-06-25T17:31:41.746Z,3.23
2017-06-25T17:34:10.003Z,2.80
2017-06-25T17:36:38.297Z,3.10
2017-06-25T17:39:06.582Z,3.03
2017-06-25T17:41:34.149Z,4.50
2017-06-25T17:44:01.706Z,7.77
2017-06-25T17:46:29.267Z,9.77
2017-06-25T17:48:56.786Z,19.63
2017-06-25T17:51:24.386Z,33.00
2017-06-25T17:53:51.889Z,14.80
2017-06-25T17:56:19.383Z,9.90
2017-06-25T17:58:46.965Z,10.20
2017-06-25T18:01:14.626Z,7.13
2017-06-25T18:03:42.290Z,4.70
2017-06-25T18:06:09.777Z,4.40
2017-06-25T18:08:37.423Z,5.57
2017-06-25T18:11:05.069Z,5.30
2017-06-25T18:13:32.558Z,3.13
2017-06-25T18:16:00.050Z,3.57
2017-06-25T18:18:27.749Z,4.03
2017-06-25T18:20:55.318Z,5.63
2017-06-25T18:23:22.870Z,8.40
2017-06-25T18:25:50.438Z,10.40
2017-06-25T18:28:17.937Z,6.50
2017-06-25T18:30:45.450Z,11.20
2017-06-25T18:33:13.006Z,4.00
2017-06-25T18:35:40.502Z,3.70
2017-06-25T18:38:08.131Z,3.80
2017-06-25T18:40:35.802Z,3.57
2017-06-25T18:43:03.294Z,3.03
2017-06-25T18:45:31.014Z,2.80
2017-06-25T18:47:59.310Z,2.70
2017-06-25T18:50:26.806Z,2.80
2017-06-25T18:52:54.510Z,2.73
2017-06-25T18:55:22.078Z,2.80
2017-06-25T18:57:49.585Z,26.87
2017-06-25T19:00:17.122Z,19.53
2017-06-25T19:02:44.754Z,21.60
2017-06-25T19:05:12.321Z,23.20
2017-06-25T19:07:39.982Z,15.10
2017-06-25T19:10:07.538Z,15.93
2017-06-25T19:12:35.041Z,38.20
2017-06-25T19:15:02.762Z,30.30
2017-06-25T19:17:30.258Z,31.73
2017-06-25T19:19:57.780Z,30.30
2017-06-25T19:22:25.439Z,16.87
2017-06-25T19:24:52.937Z,7.77
2017-06-25T19:27:20.430Z,7.37
2017-06-25T19:29:48.726Z,6.20
2017-06-25T19:32:17.018Z,5.47
2017-06-25T19:34:44.505Z,5.67
2017-06-25T19:37:12.030Z,5.10
2017-06-25T19:39:39.530Z,5.80
2017-06-25T19:42:07.074Z,4.97
2017-06-25T19:44:34.611Z,6.27
2017-06-25T19:47:02.098Z,4.33
2017-06-25T19:49:29.621Z,4.33
2017-06-25T19:51:57.118Z,4.80
2017-06-25T19:54:24.633Z,3.17
2017-06-25T19:56:52.198Z,4.73
2017-06-25T19:59:19.758Z,4.43
2017-06-25T20:01:47.246Z,3.40
2017-06-25T20:04:14.766Z,4.70
2017-06-25T20:06:43.058Z,4.60
2017-06-25T20:09:10.717Z,5.10
2017-06-25T20:11:38.222Z,8.40
2017-06-25T20:14:05.745Z,6.60
2017-06-25T20:16:33.299Z,8.27
2017-06-25T20:19:00.857Z,10.23
2017-06-25T20:21:28.382Z,9.23
2017-06-25T20:23:56.082Z,8.87
2017-06-25T20:26:23.582Z,8.93
2017-06-25T20:28:51.098Z,8.70
2017-06-25T20:31:18.759Z,9.30
2017-06-25T20:33:46.315Z,8.40
2017-06-25T20:36:13.810Z,9.93
2017-06-25T20:38:41.334Z,9.00
2017-06-25T20:41:08.871Z,10.60
2017-06-25T20:43:37.182Z,10.57
2017-06-25T20:46:04.733Z,10.47
2017-06-25T20:48:32.354Z,10.30
2017-06-25T20:51:00.035Z,9.70
2017-06-25T20:53:28.338Z,11.70
2017-06-25T20:55:55.882Z,9.13
2017-06-25T20:58:24.154Z,9.47
2017-06-25T21:00:52.417Z,8.70
2017-06-25T21:03:20.114Z,9.90
2017-06-25T21:05:47.673Z,9.40
2017-06-25T21:08:15.229Z,10.50
2017-06-25T21:10:42.797Z,10.50
2017-06-25T21:13:10.295Z,9.13
2017-06-25T21:15:37.834Z,21.50
2017-06-25T21:18:05.374Z,15.37
2017-06-25T21:20:32.872Z,14.50
2017-06-25T21:23:00.599Z,16.60
2017-06-25T21:25:28.287Z,16.87
2017-06-25T21:27:56.346Z,15.50
2017-06-25T21:30:24.321Z,9.50
2017-06-25T21:32:52.285Z,14.57
2017-06-25T21:35:20.872Z,11.27
2017-06-25T21:37:48.670Z,11.73
2017-06-25T21:40:17.323Z,11.60
2017-06-25T21:42:45.086Z,5.00
2017-06-25T21:45:13.569Z,4.90
2017-06-25T21:47:41.741Z,3.10
2017-06-25T21:50:10.530Z,3.80
2017-06-25T21:52:38.397Z,3.30
2017-06-25T21:55:06.829Z,3.67
2017-06-25T21:57:34.745Z,13.53
2017-06-25T22:00:04.150Z,11.20
2017-06-25T22:02:32.119Z,22.70
2017-06-25T22:05:00.908Z,11.10
2017-06-25T22:07:28.776Z,10.83
2017-06-25T22:09:57.668Z,5.00
2017-06-25T22:12:26.455Z,6.03
2017-06-25T22:14:54.425Z,7.57
2017-06-25T22:17:22.328Z,4.43
2017-06-25T22:19:52.053Z,4.05
2017-06-25T22:22:21.307Z,4.27
2017-06-25T22:24:49.320Z,3.30
2017-06-25T22:27:17.353Z,4.78
2017-06-25T22:29:47.231Z,3.20
2017-06-25T22:32:16.049Z,2.80
2017-06-25T22:34:43.814Z,3.25
2017-06-25T22:37:11.617Z,3.05
2017-06-25T22:39:39.549Z,2.65
2017-06-25T22:42:07.826Z,2.15
2017-06-25T22:44:38.560Z,3.10
2017-06-25T22:47:06.735Z,2.28
2017-06-25T22:49:34.909Z,2.97
2017-06-25T22:52:02.777Z,2.40
2017-06-25T22:54:31.298Z,2.33
2017-06-25T22:57:00.764Z,2.60
2017-06-25T22:59:28.529Z,2.70
2017-06-25T23:01:56.498Z,2.65
2017-06-25T23:04:24.322Z,2.70
2017-06-25T23:06:52.103Z,2.40
2017-06-25T23:09:19.831Z,2.22
2017-06-25T23:11:48.173Z,1.98
2017-06-25T23:14:15.815Z,2.35
2017-06-25T23:16:43.599Z,2.03
2017-06-25T23:19:11.672Z,1.95
2017-06-25T23:21:39.743Z,5.78
2017-06-25T23:24:09.394Z,4.68
2017-06-25T23:26:38.617Z,7.25
2017-06-25T23:29:07.031Z,14.20
2017-06-25T23:31:34.899Z,10.50
2017-06-25T23:34:03.278Z,5.12
2017-06-25T23:36:31.144Z,25.42
2017-06-25T23:38:59.013Z,21.85
2017-06-25T23:41:28.314Z,18.33
2017-06-25T23:43:56.283Z,11.80
2017-06-25T23:46:24.181Z,3.50
2017-06-25T23:48:52.837Z,5.87
2017-06-25T23:51:21.503Z,4.20
2017-06-25T23:53:49.331Z,3.20
2017-06-25T23:56:17.135Z,5.47
2017-06-25T23:58:45.022Z,5.85
